Etusivu
METAR-TAF:

METAR-TAF

Lentoasemat :

Chōfun lentoasema

Chōfu, Japani

Leveyspiiri: 35-40N, Pituuspiiri: 139-32E, korkeus merenpinnasta: 41 m

Tämänhetkinen sää

Tämä raportti tehtiin 9 tuntia ja 52 minuuttia sitten, kello 08.00 UTC
Tuuli 7 kn etelästä/lounaasta, vaihdellen etelän/kaakon ja lännen/lounaan välillä
Lämpötila 25°C
Kosteus 65%
Ilmanpaine 1014 hPa
Näkyvyys 10 km tai enemmän
Muutamia pilviä 2500 ft:n korkeudessa
Hajonneita pilviä 4000 ft:n korkeudessa
Hajonneita pilviä 8000 ft:n korkeudessa

METAR: RJTF 210800Z 21007KT 160V250 9999 FEW025 BKN040 BKN080 25/18 Q1014

Aika: 02:52 (17:52 UTC)


TAF: puuttuu

Säähavainnot ja -ennusteet yli 4000 lentoasemalta (METAR- ja TAF-raportit).

Käytössä olevat sääasemat on merkitty karttaan keltaisilla ja punaisilla pisteillä.

Aseta hiiri pisteen päälle nähdäksesi sääaseman nimen.

Klikkaa sitten nähdäksesi säähavainnot ja -ennusteet.

Kartan vaihtaminen: klikkaa mustalla rastilla varustettuja vihreitä pisteitä, niin voit zoomata sisään; viivalla varustettua vihreää pistettä, niin voit zoomata ulos tai vihreitä nuolia, niin pääset viereisille kartoille.


METAR-TAF: